Time;durP1;ratioP1;P1;durP2;ratioP2;P2;SDS_P1;SDS_P2;PMS_P1;PMS_P2;Temp;Humidity;BMP_temperature;BMP_pressure;BME280_temperature;BME280_humidity;BME280_pressure;Samples;Min_cycle;Max_cycle;Signal;HPM_P1;HPM_P2
2022/10/27 00:00:38;;;;;;;8.63;3.00;;;;;;;;;;4942294;28;20055;-75
2022/10/27 00:03:04;;;;;;;11.95;2.80;;;;;;;;;;4947133;28;20324;-74
2022/10/27 00:05:30;;;;;;;9.63;3.33;;;;;;;;;;4978328;28;20039;-75
2022/10/27 00:07:56;;;;;;;12.63;3.45;;;;;;;;;;4947892;28;20047;-76
2022/10/27 00:10:22;;;;;;;10.98;3.50;;;;;;;;;;4954056;28;20043;-75
2022/10/27 00:12:48;;;;;;;11.23;3.13;;;;;;;;;;4956726;28;20649;-75
2022/10/27 00:15:14;;;;;;;12.65;3.40;;;;;;;;;;4949545;28;20050;-75
2022/10/27 00:17:40;;;;;;;8.43;3.30;;;;;;;;;;4943937;28;20066;-75
2022/10/27 00:20:07;;;;;;;13.02;3.08;;;;;;;;;;4946506;28;20046;-75
2022/10/27 00:22:33;;;;;;;12.35;3.10;;;;;;;;;;4978738;28;20051;-75
2022/10/27 00:24:59;;;;;;;10.07;3.17;;;;;;;;;;4942328;28;20087;-75
2022/10/27 00:27:25;;;;;;;10.35;3.35;;;;;;;;;;4981490;28;20065;-75
2022/10/27 00:29:51;;;;;;;10.70;3.22;;;;;;;;;;4951443;28;20043;-75
2022/10/27 00:32:17;;;;;;;10.75;3.80;;;;;;;;;;4953904;28;20047;-75
2022/10/27 00:34:43;;;;;;;9.25;3.70;;;;;;;;;;4948203;28;20186;-75
2022/10/27 00:37:09;;;;;;;14.60;3.72;;;;;;;;;;4950831;28;20134;-75
2022/10/27 00:39:35;;;;;;;11.23;3.45;;;;;;;;;;4984854;28;20442;-75
2022/10/27 00:42:04;;;;;;;16.65;4.15;;;;;;;;;;4954560;28;20043;-75
2022/10/27 00:44:33;;;;;;;9.55;3.58;;;;;;;;;;4952224;28;20738;-75
2022/10/27 00:47:02;;;;;;;9.95;4.03;;;;;;;;;;4949736;28;20047;-75
2022/10/27 00:49:31;;;;;;;11.07;3.63;;;;;;;;;;4981620;28;20054;-75
2022/10/27 00:51:59;;;;;;;10.68;3.40;;;;;;;;;;4951100;28;20125;-75
2022/10/27 00:54:27;;;;;;;9.52;3.30;;;;;;;;;;4946606;28;20059;-75
2022/10/27 00:56:53;;;;;;;11.77;3.25;;;;;;;;;;4948609;28;20047;-75
2022/10/27 00:59:20;;;;;;;8.93;3.60;;;;;;;;;;4944038;28;20043;-75
2022/10/27 01:01:47;;;;;;;16.83;3.83;;;;;;;;;;4951937;28;20768;-75
2022/10/27 01:04:15;;;;;;;10.45;3.65;;;;;;;;;;4981826;28;20058;-75
2022/10/27 01:06:41;;;;;;;8.98;3.58;;;;;;;;;;4981758;28;20046;-75
2022/10/27 01:09:07;;;;;;;10.52;3.40;;;;;;;;;;4949719;28;20459;-75
2022/10/27 01:11:33;;;;;;;12.45;3.55;;;;;;;;;;4983160;28;20059;-75
2022/10/27 01:13:59;;;;;;;10.60;3.75;;;;;;;;;;4951969;28;20407;-75
2022/10/27 01:16:37;;;;;;;9.18;3.75;;;;;;;;;;4984353;28;20035;-75
2022/10/27 01:19:15;;;;;;;10.25;3.63;;;;;;;;;;4950263;28;20134;-75
2022/10/27 01:21:44;;;;;;;10.93;3.63;;;;;;;;;;4953061;28;20514;-75
2022/10/27 01:24:22;;;;;;;13.43;3.88;;;;;;;;;;4950734;28;20062;-75
2022/10/27 01:26:48;;;;;;;11.95;4.28;;;;;;;;;;4983730;28;20047;-75
2022/10/27 01:29:17;;;;;;;13.73;4.28;;;;;;;;;;4970373;28;20048;-75
2022/10/27 01:31:53;;;;;;;10.95;3.95;;;;;;;;;;4951504;28;20049;-75
2022/10/27 01:34:27;;;;;;;8.60;3.95;;;;;;;;;;4950812;28;20047;-75
2022/10/27 01:37:17;;;;;;;9.27;3.58;;;;;;;;;;4953686;28;20403;-75
2022/10/27 01:39:47;;;;;;;9.77;4.32;;;;;;;;;;4939554;28;20427;-75
2022/10/27 01:42:18;;;;;;;10.20;3.65;;;;;;;;;;4948283;28;20097;-75
2022/10/27 01:44:46;;;;;;;11.35;4.30;;;;;;;;;;4947343;28;20050;-75
2022/10/27 01:47:13;;;;;;;11.00;4.30;;;;;;;;;;4955728;28;20604;-75
2022/10/27 01:49:40;;;;;;;11.02;4.72;;;;;;;;;;4948589;28;20125;-75
2022/10/27 01:52:07;;;;;;;12.02;4.72;;;;;;;;;;4947831;28;20039;-75
2022/10/27 01:54:35;;;;;;;12.25;5.05;;;;;;;;;;4952063;28;20878;-75
2022/10/27 01:57:11;;;;;;;8.75;4.80;;;;;;;;;;4948483;28;20050;-75
2022/10/27 01:59:37;;;;;;;12.10;4.72;;;;;;;;;;4945632;28;20074;-75
2022/10/27 02:02:15;;;;;;;12.70;5.40;;;;;;;;;;4949353;28;20055;-75
2022/10/27 02:04:56;;;;;;;11.27;5.38;;;;;;;;;;4949830;28;20099;-75
2022/10/27 02:07:28;;;;;;;12.30;6.18;;;;;;;;;;4953059;28;20070;-75
2022/10/27 02:10:10;;;;;;;11.67;5.53;;;;;;;;;;4945120;28;20043;-75
2022/10/27 02:12:37;;;;;;;12.40;5.93;;;;;;;;;;4951609;28;20405;-75
2022/10/27 02:15:07;;;;;;;12.15;6.70;;;;;;;;;;4951468;28;20165;-75
2022/10/27 02:17:38;;;;;;;14.48;7.25;;;;;;;;;;4953039;28;20039;-75
2022/10/27 02:20:06;;;;;;;10.75;6.57;;;;;;;;;;4952213;28;20039;-75
2022/10/27 02:22:36;;;;;;;11.75;7.45;;;;;;;;;;4978357;28;20066;-75
2022/10/27 02:25:02;;;;;;;11.27;7.70;;;;;;;;;;4949142;28;20039;-75
2022/10/27 02:27:37;;;;;;;14.55;8.13;;;;;;;;;;4944315;28;20054;-75
2022/10/27 02:30:04;;;;;;;16.17;9.02;;;;;;;;;;4983217;28;20093;-75
2022/10/27 02:32:31;;;;;;;13.02;8.60;;;;;;;;;;4949416;28;20055;-75
2022/10/27 02:34:57;;;;;;;13.35;8.63;;;;;;;;;;4948726;28;20051;-75
2022/10/27 02:37:31;;;;;;;15.77;10.73;;;;;;;;;;4951341;28;20570;-75
2022/10/27 02:39:57;;;;;;;15.20;11.18;;;;;;;;;;4948183;28;20052;-75
2022/10/27 02:42:23;;;;;;;15.43;10.90;;;;;;;;;;4946083;28;20384;-75
2022/10/27 02:44:49;;;;;;;19.88;12.57;;;;;;;;;;4979218;28;20122;-75
2022/10/27 02:47:18;;;;;;;18.20;12.40;;;;;;;;;;4948900;28;20055;-75
2022/10/27 02:49:44;;;;;;;17.30;12.95;;;;;;;;;;4948106;28;20121;-75
2022/10/27 02:52:11;;;;;;;16.73;12.82;;;;;;;;;;4948939;28;20122;-75
2022/10/27 02:54:37;;;;;;;18.13;13.60;;;;;;;;;;4953240;28;20050;-75
2022/10/27 02:57:03;;;;;;;16.40;12.57;;;;;;;;;;4950714;28;20058;-75
2022/10/27 02:59:29;;;;;;;16.58;13.02;;;;;;;;;;4945210;28;20043;-76
2022/10/27 03:01:55;;;;;;;14.52;12.85;;;;;;;;;;4948791;28;20043;-75
2022/10/27 03:04:21;;;;;;;15.73;12.88;;;;;;;;;;4949312;28;20402;-75
2022/10/27 03:06:47;;;;;;;15.30;13.13;;;;;;;;;;4947788;28;20059;-75
2022/10/27 03:09:13;;;;;;;17.52;13.18;;;;;;;;;;4944844;28;20049;-75
2022/10/27 03:11:39;;;;;;;15.57;12.48;;;;;;;;;;4951078;28;20399;-75
2022/10/27 03:14:05;;;;;;;17.00;12.75;;;;;;;;;;4953822;28;20034;-75
2022/10/27 03:16:31;;;;;;;18.42;12.77;;;;;;;;;;4944599;28;20091;-75
2022/10/27 03:18:57;;;;;;;16.02;12.27;;;;;;;;;;4952326;28;20039;-75
2022/10/27 03:21:25;;;;;;;13.70;11.82;;;;;;;;;;4947286;28;20050;-75
2022/10/27 03:23:52;;;;;;;16.65;12.27;;;;;;;;;;4978986;28;20681;-75
2022/10/27 03:26:18;;;;;;;14.23;12.30;;;;;;;;;;4941737;28;20050;-75
2022/10/27 03:28:44;;;;;;;13.65;12.10;;;;;;;;;;4949050;28;20035;-75
2022/10/27 03:31:10;;;;;;;13.75;12.02;;;;;;;;;;4947827;28;20042;-75
2022/10/27 03:33:36;;;;;;;13.73;11.02;;;;;;;;;;4981930;28;21718;-76
2022/10/27 03:36:02;;;;;;;13.93;11.70;;;;;;;;;;4945798;28;20466;-75
2022/10/27 03:38:28;;;;;;;15.20;11.35;;;;;;;;;;4951766;28;20051;-75
2022/10/27 03:40:54;;;;;;;13.93;11.85;;;;;;;;;;4947114;28;20400;-75
2022/10/27 03:43:20;;;;;;;14.27;11.82;;;;;;;;;;4951996;28;20047;-75
2022/10/27 03:45:50;;;;;;;15.90;12.30;;;;;;;;;;4952459;28;20562;-75
2022/10/27 03:48:16;;;;;;;15.13;11.45;;;;;;;;;;4954269;28;20039;-75
2022/10/27 03:50:46;;;;;;;15.85;11.63;;;;;;;;;;4949230;28;20103;-75
2022/10/27 03:53:12;;;;;;;15.43;11.93;;;;;;;;;;4971367;28;20051;-75
2022/10/27 03:55:38;;;;;;;16.70;12.05;;;;;;;;;;4951048;28;20051;-75
2022/10/27 03:58:04;;;;;;;14.98;11.80;;;;;;;;;;4949832;28;20051;-75
2022/10/27 04:00:32;;;;;;;16.33;11.63;;;;;;;;;;4940878;28;20059;-75
2022/10/27 04:02:58;;;;;;;13.85;11.70;;;;;;;;;;4958426;28;20057;-75
2022/10/27 04:05:25;;;;;;;12.68;11.27;;;;;;;;;;4960291;28;20166;-75
2022/10/27 04:07:51;;;;;;;13.18;11.77;;;;;;;;;;4952808;28;20074;-75
2022/10/27 04:10:18;;;;;;;16.27;11.43;;;;;;;;;;4946468;28;20525;-75
2022/10/27 04:12:54;;;;;;;14.65;12.07;;;;;;;;;;4957705;28;20083;-75
2022/10/27 04:15:21;;;;;;;13.60;12.13;;;;;;;;;;4956691;28;20044;-75
2022/10/27 04:17:47;;;;;;;14.00;11.55;;;;;;;;;;4962006;28;20047;-75
2022/10/27 04:20:13;;;;;;;13.38;11.30;;;;;;;;;;4954156;28;20039;-75
2022/10/27 04:22:39;;;;;;;15.32;11.05;;;;;;;;;;4954757;28;20398;-75
2022/10/27 04:25:06;;;;;;;17.02;11.63;;;;;;;;;;4968251;28;20557;-75
2022/10/27 04:27:32;;;;;;;12.90;11.50;;;;;;;;;;4950896;28;20047;-75
2022/10/27 04:29:58;;;;;;;15.07;12.13;;;;;;;;;;4953068;28;20044;-75
2022/10/27 04:32:24;;;;;;;15.93;11.45;;;;;;;;;;4953579;28;20058;-75
2022/10/27 04:34:50;;;;;;;13.68;11.57;;;;;;;;;;4983605;28;20047;-75
2022/10/27 04:37:16;;;;;;;14.77;11.68;;;;;;;;;;4990349;28;20051;-75
2022/10/27 04:39:42;;;;;;;16.90;11.48;;;;;;;;;;4974515;28;20057;-75
2022/10/27 04:42:10;;;;;;;14.55;12.65;;;;;;;;;;4949003;28;20051;-75
2022/10/27 04:44:36;;;;;;;16.42;11.48;;;;;;;;;;4950309;28;20118;-75
2022/10/27 04:47:02;;;;;;;16.90;11.40;;;;;;;;;;4948030;28;20138;-75
2022/10/27 04:49:28;;;;;;;15.20;11.45;;;;;;;;;;4953470;28;20416;-75
2022/10/27 04:51:54;;;;;;;13.43;11.38;;;;;;;;;;4951714;28;20047;-75
2022/10/27 04:54:23;;;;;;;16.05;11.65;;;;;;;;;;4948664;28;20047;-75
2022/10/27 04:56:49;;;;;;;15.25;11.73;;;;;;;;;;4985060;28;20061;-75
2022/10/27 04:59:15;;;;;;;15.23;11.77;;;;;;;;;;4938562;28;20119;-75
2022/10/27 05:01:41;;;;;;;16.17;12.20;;;;;;;;;;4948522;28;20386;-75
2022/10/27 05:04:07;;;;;;;14.38;11.40;;;;;;;;;;4952662;28;20045;-75
2022/10/27 05:06:33;;;;;;;14.15;11.20;;;;;;;;;;4953963;28;20054;-75
2022/10/27 05:08:59;;;;;;;15.38;11.18;;;;;;;;;;4984648;28;20040;-75
2022/10/27 05:11:26;;;;;;;15.20;11.55;;;;;;;;;;4946661;28;20044;-75
2022/10/27 05:13:52;;;;;;;13.98;11.35;;;;;;;;;;4948068;28;20419;-75
2022/10/27 05:16:18;;;;;;;14.63;10.80;;;;;;;;;;4948449;29;20047;-75
2022/10/27 05:18:44;;;;;;;15.75;11.80;;;;;;;;;;4982579;28;20043;-75
2022/10/27 05:21:10;;;;;;;15.20;11.35;;;;;;;;;;4955488;28;20539;-75
2022/10/27 05:23:36;;;;;;;15.50;11.70;;;;;;;;;;4951362;28;20407;-75
2022/10/27 05:26:02;;;;;;;15.75;10.82;;;;;;;;;;4984023;28;20063;-75
2022/10/27 05:28:28;;;;;;;13.38;11.13;;;;;;;;;;4977761;28;20496;-75
2022/10/27 05:30:58;;;;;;;15.25;10.32;;;;;;;;;;4956037;28;20129;-75
2022/10/27 05:33:24;;;;;;;13.32;10.95;;;;;;;;;;4945382;28;20043;-75
2022/10/27 05:35:50;;;;;;;16.63;10.65;;;;;;;;;;4953009;28;20146;-75
2022/10/27 05:38:17;;;;;;;16.60;11.10;;;;;;;;;;4978692;28;20126;-75
2022/10/27 05:40:43;;;;;;;13.00;10.75;;;;;;;;;;4958765;28;20070;-75
2022/10/27 05:43:09;;;;;;;15.65;9.82;;;;;;;;;;4949910;28;20055;-75
2022/10/27 05:45:35;;;;;;;12.50;10.18;;;;;;;;;;4969907;28;20113;-75
2022/10/27 05:48:02;;;;;;;12.75;9.85;;;;;;;;;;4951354;28;20047;-75
2022/10/27 05:50:29;;;;;;;14.63;9.73;;;;;;;;;;4973291;28;20406;-75
2022/10/27 05:52:55;;;;;;;14.65;10.45;;;;;;;;;;4979568;28;20377;-75
2022/10/27 05:55:22;;;;;;;15.15;10.52;;;;;;;;;;4952565;28;20114;-75
2022/10/27 05:57:55;;;;;;;13.50;9.90;;;;;;;;;;4950912;28;20078;-76
2022/10/27 06:00:21;;;;;;;10.82;9.45;;;;;;;;;;4947699;28;20052;-75
2022/10/27 06:02:47;;;;;;;13.85;9.32;;;;;;;;;;4943344;28;20047;-75
2022/10/27 06:05:13;;;;;;;13.40;10.15;;;;;;;;;;4982734;28;20131;-75
2022/10/27 06:07:39;;;;;;;15.38;9.55;;;;;;;;;;4949497;28;20050;-75
2022/10/27 06:10:08;;;;;;;14.82;9.80;;;;;;;;;;4985126;28;20047;-75
2022/10/27 06:12:34;;;;;;;14.88;9.77;;;;;;;;;;4934160;29;20044;-75
2022/10/27 06:15:00;;;;;;;12.98;9.73;;;;;;;;;;4950190;28;20062;-75
2022/10/27 06:17:26;;;;;;;11.27;9.07;;;;;;;;;;4952689;28;20062;-75
2022/10/27 06:19:52;;;;;;;11.40;9.48;;;;;;;;;;4938788;29;20500;-75
2022/10/27 06:22:18;;;;;;;14.60;9.70;;;;;;;;;;4934338;29;20055;-75
2022/10/27 06:24:44;;;;;;;12.25;8.98;;;;;;;;;;4941675;28;20400;-75
2022/10/27 06:27:10;;;;;;;14.43;9.13;;;;;;;;;;4948362;28;20161;-75
2022/10/27 06:29:36;;;;;;;13.75;9.25;;;;;;;;;;4936771;29;20035;-75
2022/10/27 06:32:02;;;;;;;10.27;8.57;;;;;;;;;;4935000;28;20059;-75
2022/10/27 06:34:28;;;;;;;11.80;9.05;;;;;;;;;;4935588;28;20083;-75
2022/10/27 06:36:54;;;;;;;12.18;8.32;;;;;;;;;;4948114;28;20086;-75
2022/10/27 06:39:20;;;;;;;12.57;8.27;;;;;;;;;;4943810;28;20039;-75
2022/10/27 06:41:46;;;;;;;11.55;7.88;;;;;;;;;;4980614;28;20054;-75
2022/10/27 06:44:12;;;;;;;11.60;7.93;;;;;;;;;;4955612;28;20149;-76
2022/10/27 06:46:38;;;;;;;13.13;7.80;;;;;;;;;;4956954;28;20138;-76
2022/10/27 06:49:05;;;;;;;10.85;7.95;;;;;;;;;;4975140;28;20487;-76
2022/10/27 06:51:31;;;;;;;11.40;8.35;;;;;;;;;;4949645;28;20051;-76
2022/10/27 06:53:57;;;;;;;10.70;8.15;;;;;;;;;;4950695;28;20134;-76
2022/10/27 06:56:23;;;;;;;11.80;7.80;;;;;;;;;;4948853;28;20122;-76
2022/10/27 06:58:49;;;;;;;10.15;8.00;;;;;;;;;;4947081;28;20058;-77
2022/10/27 07:01:15;;;;;;;9.57;7.43;;;;;;;;;;4931653;28;20056;-76
2022/10/27 07:03:41;;;;;;;9.88;7.50;;;;;;;;;;4981964;28;20047;-76
2022/10/27 07:06:07;;;;;;;11.10;7.80;;;;;;;;;;4983564;28;20054;-76
2022/10/27 07:08:33;;;;;;;10.23;7.93;;;;;;;;;;4944635;28;20095;-76
2022/10/27 07:10:59;;;;;;;10.30;7.55;;;;;;;;;;4934984;28;20051;-76
2022/10/27 07:13:25;;;;;;;9.70;7.05;;;;;;;;;;4947892;28;20047;-75
2022/10/27 07:15:51;;;;;;;11.65;7.57;;;;;;;;;;4976625;28;20052;-76
2022/10/27 07:18:17;;;;;;;8.88;7.13;;;;;;;;;;4948900;28;20044;-76
2022/10/27 07:20:48;;;;;;;10.90;7.75;;;;;;;;;;4944787;29;20051;-76
2022/10/27 07:23:14;;;;;;;12.65;7.82;;;;;;;;;;4950456;28;20051;-76
2022/10/27 07:25:40;;;;;;;10.82;7.13;;;;;;;;;;4936372;28;20055;-76
2022/10/27 07:28:06;;;;;;;11.77;7.50;;;;;;;;;;4946068;28;20043;-76
2022/10/27 07:30:35;;;;;;;10.02;7.53;;;;;;;;;;4932374;29;20062;-76
2022/10/27 07:33:01;;;;;;;11.15;7.00;;;;;;;;;;4944496;28;20081;-76
2022/10/27 07:35:27;;;;;;;9.02;6.95;;;;;;;;;;4950748;29;20081;-76
2022/10/27 07:37:53;;;;;;;12.38;7.45;;;;;;;;;;4948668;28;20051;-75
2022/10/27 07:40:19;;;;;;;10.77;7.32;;;;;;;;;;4984584;28;20051;-76
2022/10/27 07:42:49;;;;;;;11.50;7.63;;;;;;;;;;4950932;28;20396;-76
2022/10/27 07:45:16;;;;;;;9.23;7.18;;;;;;;;;;4947730;29;20237;-76
2022/10/27 07:47:49;;;;;;;9.70;6.75;;;;;;;;;;4949083;28;20043;-76
2022/10/27 07:50:15;;;;;;;11.07;7.15;;;;;;;;;;4949091;28;20050;-76
2022/10/27 07:52:45;;;;;;;10.05;7.05;;;;;;;;;;4948494;28;20050;-76
2022/10/27 07:55:13;;;;;;;9.05;6.60;;;;;;;;;;4948168;28;20046;-75
2022/10/27 07:57:39;;;;;;;8.63;6.88;;;;;;;;;;4946003;28;20051;-76
2022/10/27 08:00:06;;;;;;;14.15;6.97;;;;;;;;;;4955879;28;20058;-76
2022/10/27 08:02:32;;;;;;;11.85;6.88;;;;;;;;;;4952366;28;20039;-76
2022/10/27 08:04:58;;;;;;;11.63;7.45;;;;;;;;;;4948640;28;20130;-76
2022/10/27 08:07:24;;;;;;;10.32;6.65;;;;;;;;;;4935149;28;20495;-75
2022/10/27 08:09:50;;;;;;;10.02;7.18;;;;;;;;;;4936437;28;20139;-77
2022/10/27 08:12:17;;;;;;;10.15;7.22;;;;;;;;;;4941664;28;20232;-76
2022/10/27 08:14:43;;;;;;;11.40;7.05;;;;;;;;;;4936817;28;20122;-76
2022/10/27 08:17:09;;;;;;;10.68;7.13;;;;;;;;;;4970006;28;20363;-76
2022/10/27 08:19:35;;;;;;;10.65;7.50;;;;;;;;;;4948943;29;20407;-76
2022/10/27 08:22:01;;;;;;;9.68;7.00;;;;;;;;;;4945335;29;20106;-76
2022/10/27 08:24:27;;;;;;;11.23;7.68;;;;;;;;;;4950934;28;20054;-76
2022/10/27 08:26:53;;;;;;;9.18;7.22;;;;;;;;;;4954368;28;20050;-76
2022/10/27 08:29:19;;;;;;;10.18;8.20;;;;;;;;;;4975375;28;20142;-76
2022/10/27 08:31:45;;;;;;;10.32;7.57;;;;;;;;;;4953366;28;20176;-76
2022/10/27 08:34:11;;;;;;;12.43;7.78;;;;;;;;;;4946350;28;20404;-76
2022/10/27 08:36:40;;;;;;;13.63;7.63;;;;;;;;;;4935456;28;20051;-76
2022/10/27 08:39:06;;;;;;;8.70;7.70;;;;;;;;;;4951793;28;20175;-76
2022/10/27 08:41:38;;;;;;;10.43;7.70;;;;;;;;;;4951534;29;20047;-76
2022/10/27 08:44:23;;;;;;;10.90;8.00;;;;;;;;;;4977493;28;20134;-76
2022/10/27 08:46:50;;;;;;;12.73;7.53;;;;;;;;;;4950812;28;20055;-76
2022/10/27 08:49:32;;;;;;;10.73;7.70;;;;;;;;;;4985199;28;20530;-76
2022/10/27 08:52:18;;;;;;;10.05;7.57;;;;;;;;;;4955020;28;20051;-75
2022/10/27 08:55:03;;;;;;;7.70;6.85;;;;;;;;;;4948435;28;20043;-75
2022/10/27 08:57:32;;;;;;;8.43;6.40;;;;;;;;;;4967829;28;20055;-76
2022/10/27 08:59:58;;;;;;;8.40;6.65;;;;;;;;;;4975501;28;20063;-76
2022/10/27 09:02:40;;;;;;;8.23;5.85;;;;;;;;;;4942429;28;20055;-75
2022/10/27 09:05:15;;;;;;;7.72;6.18;;;;;;;;;;4983367;28;20062;-75
2022/10/27 09:07:57;;;;;;;7.18;5.90;;;;;;;;;;4980344;28;20040;-76
2022/10/27 09:10:41;;;;;;;10.13;6.18;;;;;;;;;;4954022;28;20086;-76
2022/10/27 09:13:07;;;;;;;9.25;6.20;;;;;;;;;;4975599;28;20046;-76
2022/10/27 09:15:36;;;;;;;7.10;5.40;;;;;;;;;;4938916;28;20411;-77
2022/10/27 09:18:09;;;;;;;8.65;5.88;;;;;;;;;;4965281;28;20546;-76
2022/10/27 09:20:51;;;;;;;6.55;4.72;;;;;;;;;;4950785;28;20051;-76
2022/10/27 09:23:20;;;;;;;6.53;5.07;;;;;;;;;;4984249;28;20055;-76
2022/10/27 09:25:47;;;;;;;8.32;5.03;;;;;;;;;;4947669;28;20043;-75
2022/10/27 09:28:25;;;;;;;7.20;4.75;;;;;;;;;;4955242;28;20059;-76
2022/10/27 09:30:52;;;;;;;10.85;5.40;;;;;;;;;;4950614;28;20066;-76
2022/10/27 09:33:27;;;;;;;7.05;4.93;;;;;;;;;;4937516;29;20492;-77
2022/10/27 09:35:53;;;;;;;8.32;5.07;;;;;;;;;;4951514;28;20090;-77
2022/10/27 09:38:21;;;;;;;7.07;5.10;;;;;;;;;;4952539;29;20138;-76
2022/10/27 09:40:47;;;;;;;7.55;5.30;;;;;;;;;;4952790;28;20514;-77
2022/10/27 09:43:13;;;;;;;6.15;4.72;;;;;;;;;;4945234;29;20504;-77
2022/10/27 09:45:41;;;;;;;7.15;4.95;;;;;;;;;;4949755;28;20491;-77
2022/10/27 09:48:14;;;;;;;6.30;4.15;;;;;;;;;;4947864;28;20134;-77
2022/10/27 09:50:45;;;;;;;7.72;4.93;;;;;;;;;;4951476;28;20051;-76
2022/10/27 09:53:29;;;;;;;10.23;5.00;;;;;;;;;;4936584;29;20127;-76
2022/10/27 09:55:55;;;;;;;6.93;4.47;;;;;;;;;;4937426;28;20567;-76
2022/10/27 09:58:21;;;;;;;5.30;4.45;;;;;;;;;;4934640;28;20515;-76
2022/10/27 10:00:58;;;;;;;7.28;4.45;;;;;;;;;;4947167;28;20111;-76
2022/10/27 10:03:24;;;;;;;5.25;4.38;;;;;;;;;;4985231;28;20054;-76
2022/10/27 10:06:00;;;;;;;8.25;4.30;;;;;;;;;;4948615;28;20047;-76
2022/10/27 10:08:28;;;;;;;5.60;4.10;;;;;;;;;;4935257;29;20500;-76
2022/10/27 10:11:05;;;;;;;4.82;3.72;;;;;;;;;;4937465;28;20130;-76
2022/10/27 10:13:32;;;;;;;4.82;3.78;;;;;;;;;;4935676;28;20080;-76
2022/10/27 10:16:12;;;;;;;5.80;3.40;;;;;;;;;;4945571;28;20261;-76
2022/10/27 10:18:59;;;;;;;5.55;3.50;;;;;;;;;;4945210;28;20043;-76
2022/10/27 10:21:25;;;;;;;6.20;3.80;;;;;;;;;;4954151;28;20082;-76
2022/10/27 10:23:52;;;;;;;5.15;3.30;;;;;;;;;;4977040;28;20043;-77
2022/10/27 10:26:20;;;;;;;4.53;3.90;;;;;;;;;;4984113;28;20050;-77
2022/10/27 10:28:49;;;;;;;4.63;3.10;;;;;;;;;;4951756;29;20146;-77
2022/10/27 10:31:21;;;;;;;5.00;3.63;;;;;;;;;;4949777;28;20450;-77
2022/10/27 10:33:47;;;;;;;3.60;3.00;;;;;;;;;;4951938;29;20039;-76
2022/10/27 10:36:28;;;;;;;5.35;3.22;;;;;;;;;;4944723;28;20101;-76
2022/10/27 10:38:55;;;;;;;6.65;3.30;;;;;;;;;;4954603;28;20097;-77
2022/10/27 10:41:22;;;;;;;3.88;3.22;;;;;;;;;;4957603;28;20376;-77
2022/10/27 10:44:08;;;;;;;4.53;3.13;;;;;;;;;;4953188;29;20047;-77
2022/10/27 10:46:35;;;;;;;4.05;3.10;;;;;;;;;;4945696;29;20086;-77
2022/10/27 10:49:01;;;;;;;5.45;3.15;;;;;;;;;;4978411;28;20039;-77
2022/10/27 10:51:32;;;;;;;5.85;3.28;;;;;;;;;;4943483;29;20051;-77
2022/10/27 10:54:04;;;;;;;4.78;3.30;;;;;;;;;;4954698;28;20547;-77
2022/10/27 10:56:31;;;;;;;4.28;3.17;;;;;;;;;;4979397;28;20050;-77
2022/10/27 10:59:09;;;;;;;6.43;3.22;;;;;;;;;;4952661;29;20073;-77
2022/10/27 11:01:38;;;;;;;3.38;3.03;;;;;;;;;;4977090;28;20543;-77
2022/10/27 11:04:05;;;;;;;5.43;3.42;;;;;;;;;;4945831;29;20492;-76
2022/10/27 11:06:34;;;;;;;4.88;2.80;;;;;;;;;;4980726;28;20503;-76
2022/10/27 11:09:02;;;;;;;6.05;2.95;;;;;;;;;;4938176;29;20488;-76
2022/10/27 11:11:29;;;;;;;5.88;3.30;;;;;;;;;;4974248;28;20551;-77
2022/10/27 11:14:12;;;;;;;4.82;2.90;;;;;;;;;;4984174;28;20484;-76
2022/10/27 11:16:39;;;;;;;3.33;2.72;;;;;;;;;;4949905;29;20046;-77
2022/10/27 11:19:06;;;;;;;6.47;3.30;;;;;;;;;;4980613;28;20101;-77
2022/10/27 11:21:39;;;;;;;5.50;3.05;;;;;;;;;;4946325;29;20135;-77
2022/10/27 11:24:24;;;;;;;5.22;2.97;;;;;;;;;;4949950;29;20051;-77
2022/10/27 11:26:53;;;;;;;7.47;3.17;;;;;;;;;;4979965;28;20051;-77
2022/10/27 11:29:23;;;;;;;5.65;2.90;;;;;;;;;;4947642;28;20406;-77
2022/10/27 11:31:55;;;;;;;4.60;3.33;;;;;;;;;;4974591;28;20067;-77
2022/10/27 11:34:37;;;;;;;6.40;2.92;;;;;;;;;;4947456;28;20494;-77
2022/10/27 11:37:18;;;;;;;5.78;2.90;;;;;;;;;;4935654;28;20047;-77
2022/10/27 11:39:50;;;;;;;5.22;2.80;;;;;;;;;;4944785;29;20043;-77
2022/10/27 11:42:16;;;;;;;4.53;2.50;;;;;;;;;;4947576;29;20113;-77
2022/10/27 11:44:45;;;;;;;4.97;2.47;;;;;;;;;;4952204;29;20047;-77
2022/10/27 11:47:18;;;;;;;3.78;2.50;;;;;;;;;;4952255;29;20058;-77
2022/10/27 11:49:47;;;;;;;4.53;2.83;;;;;;;;;;4946406;28;20039;-77
2022/10/27 11:52:36;;;;;;;3.88;2.50;;;;;;;;;;4933143;29;20500;-77
2022/10/27 11:55:02;;;;;;;4.22;2.60;;;;;;;;;;4932883;29;20055;-77
2022/10/27 11:57:38;;;;;;;3.45;2.65;;;;;;;;;;4936481;29;20110;-77
2022/10/27 12:00:22;;;;;;;4.97;2.80;;;;;;;;;;4933122;29;20484;-78
2022/10/27 12:03:07;;;;;;;3.80;2.55;;;;;;;;;;4934630;29;20054;-79
2022/10/27 12:05:46;;;;;;;3.13;2.33;;;;;;;;;;4946289;28;20071;-78
2022/10/27 12:08:25;;;;;;;5.55;2.40;;;;;;;;;;4940010;29;20047;-77
2022/10/27 12:11:00;;;;;;;3.80;2.50;;;;;;;;;;4933773;29;20083;-78
2022/10/27 12:13:44;;;;;;;2.65;2.13;;;;;;;;;;4934701;29;20452;-77
2022/10/27 12:16:15;;;;;;;3.85;2.20;;;;;;;;;;4983917;28;20063;-77
2022/10/27 12:18:41;;;;;;;3.28;2.15;;;;;;;;;;4936202;28;20051;-77
2022/10/27 12:21:14;;;;;;;3.53;2.35;;;;;;;;;;4944281;28;20448;-77
2022/10/27 12:23:46;;;;;;;7.28;2.45;;;;;;;;;;4953693;28;20054;-77
2022/10/27 12:26:12;;;;;;;4.80;2.83;;;;;;;;;;4979399;28;20094;-77
2022/10/27 12:28:39;;;;;;;5.55;2.60;;;;;;;;;;4953494;28;20058;-77
2022/10/27 12:31:07;;;;;;;5.80;2.72;;;;;;;;;;4941421;29;20047;-77
2022/10/27 12:33:39;;;;;;;4.85;2.40;;;;;;;;;;4947605;28;20047;-77
2022/10/27 12:36:07;;;;;;;2.75;2.40;;;;;;;;;;4954687;29;20098;-77
2022/10/27 12:38:50;;;;;;;3.30;2.58;;;;;;;;;;4952590;28;20443;-77
2022/10/27 12:41:23;;;;;;;3.38;2.33;;;;;;;;;;4949506;28;20101;-77
2022/10/27 12:43:56;;;;;;;5.03;2.42;;;;;;;;;;4950885;28;20086;-76
2022/10/27 12:46:37;;;;;;;4.13;2.50;;;;;;;;;;4945713;28;20082;-77
2022/10/27 12:49:11;;;;;;;7.82;2.60;;;;;;;;;;4948370;28;20058;-77
2022/10/27 12:51:53;;;;;;;4.35;2.35;;;;;;;;;;4940352;29;20043;-77
2022/10/27 12:54:19;;;;;;;5.70;2.60;;;;;;;;;;4939404;28;20052;-77
2022/10/27 12:57:09;;;;;;;5.25;2.67;;;;;;;;;;4937147;28;20196;-76
2022/10/27 12:59:54;;;;;;;4.30;2.30;;;;;;;;;;4940254;28;20047;-77
2022/10/27 13:02:23;;;;;;;4.88;2.65;;;;;;;;;;4937635;28;20778;-76
2022/10/27 13:04:55;;;;;;;4.43;2.50;;;;;;;;;;4953156;29;20093;-77
2022/10/27 13:07:39;;;;;;;4.20;2.53;;;;;;;;;;4970404;28;20052;-76
2022/10/27 13:10:16;;;;;;;5.60;2.70;;;;;;;;;;4972345;28;20175;-77
2022/10/27 13:12:51;;;;;;;2.70;2.50;;;;;;;;;;4953978;29;20090;-77
2022/10/27 13:15:27;;;;;;;5.80;2.72;;;;;;;;;;4946124;28;20044;-78
2022/10/27 13:18:11;;;;;;;4.93;2.88;;;;;;;;;;4952518;28;20066;-76
2022/10/27 13:20:47;;;;;;;6.28;2.92;;;;;;;;;;4942755;29;20556;-79
2022/10/27 13:23:21;;;;;;;5.68;3.00;;;;;;;;;;4944228;29;20095;-79
2022/10/27 13:25:50;;;;;;;3.45;2.75;;;;;;;;;;4947727;29;20036;-77
2022/10/27 13:28:19;;;;;;;3.50;2.67;;;;;;;;;;4980452;28;20078;-77
2022/10/27 13:30:52;;;;;;;5.15;2.92;;;;;;;;;;4984752;28;20043;-77
2022/10/27 13:33:31;;;;;;;6.32;3.08;;;;;;;;;;4946503;28;20062;-76
2022/10/27 13:36:16;;;;;;;8.18;3.13;;;;;;;;;;4976256;28;20075;-76
2022/10/27 13:38:42;;;;;;;5.80;2.95;;;;;;;;;;4938182;29;20048;-76
2022/10/27 13:41:08;;;;;;;3.63;2.83;;;;;;;;;;4936049;29;20077;-76
2022/10/27 13:43:34;;;;;;;3.78;2.70;;;;;;;;;;4943779;28;20110;-76
2022/10/27 13:46:00;;;;;;;5.25;2.60;;;;;;;;;;4984435;28;20090;-76
2022/10/27 13:48:26;;;;;;;5.65;2.80;;;;;;;;;;4941716;28;20051;-76
2022/10/27 13:50:56;;;;;;;5.00;2.55;;;;;;;;;;4959800;28;20047;-76
2022/10/27 13:53:25;;;;;;;4.63;2.90;;;;;;;;;;4944317;29;20043;-77
2022/10/27 13:55:51;;;;;;;3.80;3.08;;;;;;;;;;4949812;29;20062;-76
2022/10/27 13:58:17;;;;;;;4.05;2.97;;;;;;;;;;4937482;29;20479;-77
2022/10/27 14:01:02;;;;;;;5.88;3.35;;;;;;;;;;4983290;28;20055;-77
2022/10/27 14:03:34;;;;;;;7.07;3.25;;;;;;;;;;4979831;28;20134;-76
2022/10/27 14:06:00;;;;;;;3.92;2.80;;;;;;;;;;4943568;29;20491;-76
2022/10/27 14:08:28;;;;;;;4.38;2.97;;;;;;;;;;4978413;28;20082;-76
2022/10/27 14:10:56;;;;;;;5.45;2.83;;;;;;;;;;4933490;29;20043;-77
2022/10/27 14:13:30;;;;;;;3.75;2.45;;;;;;;;;;4966984;28;20087;-76
2022/10/27 14:15:57;;;;;;;6.28;3.00;;;;;;;;;;4939199;29;20122;-76
2022/10/27 14:18:27;;;;;;;6.50;2.92;;;;;;;;;;4978638;28;20432;-77
2022/10/27 14:20:53;;;;;;;5.40;2.88;;;;;;;;;;4947476;29;20046;-78
2022/10/27 14:23:20;;;;;;;5.95;2.92;;;;;;;;;;4954869;29;20047;-77
2022/10/27 14:25:46;;;;;;;5.72;3.10;;;;;;;;;;4979332;28;20051;-77
2022/10/27 14:28:16;;;;;;;4.78;2.60;;;;;;;;;;4953721;28;20058;-76
2022/10/27 14:30:43;;;;;;;4.90;2.88;;;;;;;;;;4944903;28;20054;-77
2022/10/27 14:33:25;;;;;;;4.32;3.03;;;;;;;;;;4937647;28;20040;-77
2022/10/27 14:36:10;;;;;;;7.22;2.72;;;;;;;;;;4945589;29;20515;-76
2022/10/27 14:38:36;;;;;;;4.03;2.80;;;;;;;;;;4969715;28;20118;-76
2022/10/27 14:41:02;;;;;;;4.13;2.67;;;;;;;;;;4941230;29;20436;-77
2022/10/27 14:43:30;;;;;;;5.03;2.85;;;;;;;;;;4944715;28;20047;-77
2022/10/27 14:45:58;;;;;;;8.15;2.90;;;;;;;;;;4940787;28;20047;-76